sensor_id;sensor_type;location;lat;lon;timestamp;P1;durP1;ratioP1;P2;durP2;ratioP2
7247;SDS011;3665;51.034;13.642;2024-03-23T01:02:03;11.97;;;10.70;;
7247;SDS011;3665;51.034;13.642;2024-03-23T01:06:55;16.33;;;12.37;;
7247;SDS011;3665;51.034;13.642;2024-03-23T01:11:38;17.40;;;12.47;;
7247;SDS011;3665;51.034;13.642;2024-03-23T01:16:32;19.97;;;14.07;;
7247;SDS011;3665;51.034;13.642;2024-03-23T01:21:17;23.77;;;16.67;;
7247;SDS011;3665;51.034;13.642;2024-03-23T01:26:02;24.33;;;17.10;;
7247;SDS011;3665;51.034;13.642;2024-03-23T01:30:47;25.27;;;18.50;;
7247;SDS011;3665;51.034;13.642;2024-03-23T01:35:35;27.10;;;19.63;;
7247;SDS011;3665;51.034;13.642;2024-03-23T01:40:21;27.43;;;19.20;;
7247;SDS011;3665;51.034;13.642;2024-03-23T01:45:19;26.23;;;18.17;;
7247;SDS011;3665;51.034;13.642;2024-03-23T01:50:07;27.00;;;19.03;;
7247;SDS011;3665;51.034;13.642;2024-03-23T01:54:53;25.53;;;17.67;;
7247;SDS011;3665;51.034;13.642;2024-03-23T01:59:35;26.60;;;17.77;;
7247;SDS011;3665;51.034;13.642;2024-03-23T02:04:30;27.40;;;18.43;;
7247;SDS011;3665;51.034;13.642;2024-03-23T02:09:13;27.47;;;18.50;;
7247;SDS011;3665;51.034;13.642;2024-03-23T02:14:04;30.00;;;18.93;;
7247;SDS011;3665;51.034;13.642;2024-03-23T02:18:48;25.63;;;18.97;;
7247;SDS011;3665;51.034;13.642;2024-03-23T02:23:43;28.83;;;18.57;;
7247;SDS011;3665;51.034;13.642;2024-03-23T02:28:28;27.97;;;19.20;;
7247;SDS011;3665;51.034;13.642;2024-03-23T02:33:11;25.30;;;18.63;;
7247;SDS011;3665;51.034;13.642;2024-03-23T02:38:01;26.67;;;18.23;;
7247;SDS011;3665;51.034;13.642;2024-03-23T02:42:47;26.03;;;18.43;;
7247;SDS011;3665;51.034;13.642;2024-03-23T02:47:34;26.80;;;17.93;;
7247;SDS011;3665;51.034;13.642;2024-03-23T02:52:34;24.83;;;18.67;;
7247;SDS011;3665;51.034;13.642;2024-03-23T02:57:17;27.80;;;20.23;;
7247;SDS011;3665;51.034;13.642;2024-03-23T03:02:09;26.67;;;18.23;;
7247;SDS011;3665;51.034;13.642;2024-03-23T03:06:52;25.77;;;17.93;;
7247;SDS011;3665;51.034;13.642;2024-03-23T03:11:34;25.17;;;17.97;;
7247;SDS011;3665;51.034;13.642;2024-03-23T03:16:21;29.73;;;20.57;;
7247;SDS011;3665;51.034;13.642;2024-03-23T03:21:08;29.93;;;20.50;;
7247;SDS011;3665;51.034;13.642;2024-03-23T03:25:57;29.30;;;19.23;;
7247;SDS011;3665;51.034;13.642;2024-03-23T03:30:53;31.17;;;21.40;;
7247;SDS011;3665;51.034;13.642;2024-03-23T03:35:36;29.63;;;19.97;;
7247;SDS011;3665;51.034;13.642;2024-03-23T03:40:23;27.67;;;19.93;;
7247;SDS011;3665;51.034;13.642;2024-03-23T03:45:09;30.60;;;21.83;;
7247;SDS011;3665;51.034;13.642;2024-03-23T03:49:57;35.53;;;22.20;;
7247;SDS011;3665;51.034;13.642;2024-03-23T03:54:43;30.03;;;21.50;;
7247;SDS011;3665;51.034;13.642;2024-03-23T03:59:27;27.97;;;20.50;;
7247;SDS011;3665;51.034;13.642;2024-03-23T04:04:11;30.27;;;20.40;;
7247;SDS011;3665;51.034;13.642;2024-03-23T04:08:54;29.07;;;20.00;;
7247;SDS011;3665;51.034;13.642;2024-03-23T04:13:41;27.00;;;19.73;;
7247;SDS011;3665;51.034;13.642;2024-03-23T04:18:41;26.70;;;18.93;;
7247;SDS011;3665;51.034;13.642;2024-03-23T04:23:25;30.10;;;21.37;;
7247;SDS011;3665;51.034;13.642;2024-03-23T04:28:08;29.47;;;20.50;;
7247;SDS011;3665;51.034;13.642;2024-03-23T04:33:01;28.83;;;19.93;;
7247;SDS011;3665;51.034;13.642;2024-03-23T04:37:47;27.67;;;19.77;;
7247;SDS011;3665;51.034;13.642;2024-03-23T04:42:39;27.83;;;19.43;;
7247;SDS011;3665;51.034;13.642;2024-03-23T04:47:23;31.90;;;21.90;;
7247;SDS011;3665;51.034;13.642;2024-03-23T04:52:07;27.47;;;20.17;;
7247;SDS011;3665;51.034;13.642;2024-03-23T04:57:01;35.87;;;21.10;;
7247;SDS011;3665;51.034;13.642;2024-03-23T05:01:50;35.87;;;22.57;;
7247;SDS011;3665;51.034;13.642;2024-03-23T05:06:34;39.60;;;24.23;;
7247;SDS011;3665;51.034;13.642;2024-03-23T05:11:19;40.90;;;25.20;;
7247;SDS011;3665;51.034;13.642;2024-03-23T05:16:15;37.47;;;25.03;;
7247;SDS011;3665;51.034;13.642;2024-03-23T05:21:02;38.27;;;24.83;;
7247;SDS011;3665;51.034;13.642;2024-03-23T05:25:45;36.63;;;23.83;;
7247;SDS011;3665;51.034;13.642;2024-03-23T05:30:40;41.50;;;24.77;;
7247;SDS011;3665;51.034;13.642;2024-03-23T05:40:25;38.97;;;23.50;;
7247;SDS011;3665;51.034;13.642;2024-03-23T05:45:17;34.60;;;23.90;;
7247;SDS011;3665;51.034;13.642;2024-03-23T05:50:02;39.20;;;25.37;;
7247;SDS011;3665;51.034;13.642;2024-03-23T05:54:54;39.20;;;25.10;;
7247;SDS011;3665;51.034;13.642;2024-03-23T05:59:43;36.03;;;24.37;;
7247;SDS011;3665;51.034;13.642;2024-03-23T06:04:29;34.23;;;24.07;;
7247;SDS011;3665;51.034;13.642;2024-03-23T06:09:14;34.40;;;24.00;;
7247;SDS011;3665;51.034;13.642;2024-03-23T06:14:08;35.37;;;22.87;;
7247;SDS011;3665;51.034;13.642;2024-03-23T06:18:53;37.27;;;24.07;;
7247;SDS011;3665;51.034;13.642;2024-03-23T06:23:43;39.73;;;25.87;;
7247;SDS011;3665;51.034;13.642;2024-03-23T06:28:31;40.43;;;24.13;;
7247;SDS011;3665;51.034;13.642;2024-03-23T06:33:18;39.20;;;26.17;;
7247;SDS011;3665;51.034;13.642;2024-03-23T06:38:00;38.10;;;25.07;;
7247;SDS011;3665;51.034;13.642;2024-03-23T06:42:43;39.07;;;24.23;;
7247;SDS011;3665;51.034;13.642;2024-03-23T06:47:28;37.40;;;25.47;;
7247;SDS011;3665;51.034;13.642;2024-03-23T06:52:21;37.53;;;25.00;;
7247;SDS011;3665;51.034;13.642;2024-03-23T06:57:04;33.20;;;23.20;;
7247;SDS011;3665;51.034;13.642;2024-03-23T07:01:53;40.50;;;26.00;;
7247;SDS011;3665;51.034;13.642;2024-03-23T07:06:41;35.17;;;25.03;;
7247;SDS011;3665;51.034;13.642;2024-03-23T07:16:26;36.20;;;26.10;;
7247;SDS011;3665;51.034;13.642;2024-03-23T07:21:24;40.00;;;26.80;;
7247;SDS011;3665;51.034;13.642;2024-03-23T07:26:07;33.70;;;24.27;;
7247;SDS011;3665;51.034;13.642;2024-03-23T07:31:06;38.13;;;25.30;;
7247;SDS011;3665;51.034;13.642;2024-03-23T07:35:55;40.27;;;26.50;;
7247;SDS011;3665;51.034;13.642;2024-03-23T07:40:47;35.97;;;25.37;;
7247;SDS011;3665;51.034;13.642;2024-03-23T07:45:39;35.30;;;24.93;;
7247;SDS011;3665;51.034;13.642;2024-03-23T07:50:26;35.50;;;24.80;;
7247;SDS011;3665;51.034;13.642;2024-03-23T07:55:14;33.00;;;24.03;;
7247;SDS011;3665;51.034;13.642;2024-03-23T08:00:03;32.40;;;23.60;;
7247;SDS011;3665;51.034;13.642;2024-03-23T08:04:48;32.67;;;24.67;;
7247;SDS011;3665;51.034;13.642;2024-03-23T08:09:36;31.47;;;23.30;;
7247;SDS011;3665;51.034;13.642;2024-03-23T08:14:27;32.90;;;21.97;;
7247;SDS011;3665;51.034;13.642;2024-03-23T08:19:13;28.57;;;21.53;;
7247;SDS011;3665;51.034;13.642;2024-03-23T08:24:06;25.00;;;19.87;;
7247;SDS011;3665;51.034;13.642;2024-03-23T08:29:08;25.80;;;19.67;;
7247;SDS011;3665;51.034;13.642;2024-03-23T08:33:58;24.43;;;20.43;;
7247;SDS011;3665;51.034;13.642;2024-03-23T08:38:42;25.23;;;21.37;;
7247;SDS011;3665;51.034;13.642;2024-03-23T08:43:35;24.53;;;19.70;;
7247;SDS011;3665;51.034;13.642;2024-03-23T08:48:36;28.57;;;19.73;;
7247;SDS011;3665;51.034;13.642;2024-03-23T08:53:21;21.20;;;17.60;;
7247;SDS011;3665;51.034;13.642;2024-03-23T08:58:10;20.43;;;15.63;;
7247;SDS011;3665;51.034;13.642;2024-03-23T09:02:57;16.63;;;13.07;;
7247;SDS011;3665;51.034;13.642;2024-03-23T09:07:49;19.27;;;15.70;;
7247;SDS011;3665;51.034;13.642;2024-03-23T09:12:32;11.57;;;8.90;;
7247;SDS011;3665;51.034;13.642;2024-03-23T09:17:17;10.03;;;9.03;;
7247;SDS011;3665;51.034;13.642;2024-03-23T09:22:06;10.57;;;9.50;;
7247;SDS011;3665;51.034;13.642;2024-03-23T09:27:01;11.87;;;9.73;;
7247;SDS011;3665;51.034;13.642;2024-03-23T09:31:47;11.97;;;10.27;;
7247;SDS011;3665;51.034;13.642;2024-03-23T09:41:16;12.00;;;10.47;;
7247;SDS011;3665;51.034;13.642;2024-03-23T09:46:04;14.93;;;11.20;;
7247;SDS011;3665;51.034;13.642;2024-03-23T09:50:51;16.10;;;11.63;;
7247;SDS011;3665;51.034;13.642;2024-03-23T09:55:38;8.83;;;5.03;;
7247;SDS011;3665;51.034;13.642;2024-03-23T10:00:23;2.40;;;2.20;;
7247;SDS011;3665;51.034;13.642;2024-03-23T10:05:13;1.30;;;1.10;;
7247;SDS011;3665;51.034;13.642;2024-03-23T10:10:10;0.80;;;0.80;;
7247;SDS011;3665;51.034;13.642;2024-03-23T10:14:59;1.03;;;0.77;;
7247;SDS011;3665;51.034;13.642;2024-03-23T10:19:46;1.00;;;0.90;;
7247;SDS011;3665;51.034;13.642;2024-03-23T10:29:43;0.70;;;0.70;;
7247;SDS011;3665;51.034;13.642;2024-03-23T10:34:46;1.03;;;0.63;;
7247;SDS011;3665;51.034;13.642;2024-03-23T10:39:33;0.87;;;0.70;;
7247;SDS011;3665;51.034;13.642;2024-03-23T10:44:19;0.93;;;0.70;;
7247;SDS011;3665;51.034;13.642;2024-03-23T10:49:05;0.53;;;0.53;;
7247;SDS011;3665;51.034;13.642;2024-03-23T10:54:09;1.40;;;0.90;;
7247;SDS011;3665;51.034;13.642;2024-03-23T10:58:57;0.60;;;0.60;;
7247;SDS011;3665;51.034;13.642;2024-03-23T11:03:46;0.60;;;0.60;;
7247;SDS011;3665;51.034;13.642;2024-03-23T11:08:39;0.60;;;0.60;;
7247;SDS011;3665;51.034;13.642;2024-03-23T11:13:24;0.43;;;0.43;;
7247;SDS011;3665;51.034;13.642;2024-03-23T11:18:10;2.00;;;0.53;;
7247;SDS011;3665;51.034;13.642;2024-03-23T11:22:56;1.43;;;1.20;;
7247;SDS011;3665;51.034;13.642;2024-03-23T11:27:39;0.77;;;0.70;;
7247;SDS011;3665;51.034;13.642;2024-03-23T11:32:27;0.70;;;0.70;;
7247;SDS011;3665;51.034;13.642;2024-03-23T11:37:25;0.80;;;0.80;;
7247;SDS011;3665;51.034;13.642;2024-03-23T11:42:11;1.90;;;0.83;;
7247;SDS011;3665;51.034;13.642;2024-03-23T11:47:06;0.97;;;0.97;;
7247;SDS011;3665;51.034;13.642;2024-03-23T11:51:57;0.77;;;0.77;;
7247;SDS011;3665;51.034;13.642;2024-03-23T11:56:56;0.77;;;0.77;;
7247;SDS011;3665;51.034;13.642;2024-03-23T12:01:41;1.00;;;1.00;;
7247;SDS011;3665;51.034;13.642;2024-03-23T12:06:26;1.30;;;1.20;;
7247;SDS011;3665;51.034;13.642;2024-03-23T12:11:15;1.03;;;1.00;;
7247;SDS011;3665;51.034;13.642;2024-03-23T12:20:59;1.13;;;1.13;;
7247;SDS011;3665;51.034;13.642;2024-03-23T12:25:53;0.93;;;0.93;;
7247;SDS011;3665;51.034;13.642;2024-03-23T12:30:42;1.30;;;1.20;;
7247;SDS011;3665;51.034;13.642;2024-03-23T12:35:25;1.50;;;1.40;;
7247;SDS011;3665;51.034;13.642;2024-03-23T12:40:15;1.67;;;1.57;;
7247;SDS011;3665;51.034;13.642;2024-03-23T12:44:58;1.97;;;1.87;;
7247;SDS011;3665;51.034;13.642;2024-03-23T12:49:58;2.33;;;2.13;;
7247;SDS011;3665;51.034;13.642;2024-03-23T12:54:41;2.10;;;2.00;;
7247;SDS011;3665;51.034;13.642;2024-03-23T12:59:30;1.83;;;1.73;;
7247;SDS011;3665;51.034;13.642;2024-03-23T13:04:16;1.93;;;1.80;;
7247;SDS011;3665;51.034;13.642;2024-03-23T13:08:59;2.63;;;2.20;;
7247;SDS011;3665;51.034;13.642;2024-03-23T13:13:48;2.57;;;2.23;;
7247;SDS011;3665;51.034;13.642;2024-03-23T13:18:43;2.23;;;2.13;;
7247;SDS011;3665;51.034;13.642;2024-03-23T13:23:32;2.60;;;2.40;;
7247;SDS011;3665;51.034;13.642;2024-03-23T13:28:18;2.93;;;2.07;;
7247;SDS011;3665;51.034;13.642;2024-03-23T13:33:07;1.70;;;1.60;;
7247;SDS011;3665;51.034;13.642;2024-03-23T13:37:55;2.20;;;1.80;;
7247;SDS011;3665;51.034;13.642;2024-03-23T13:42:43;4.43;;;1.83;;
7247;SDS011;3665;51.034;13.642;2024-03-23T13:47:27;5.57;;;2.00;;
7247;SDS011;3665;51.034;13.642;2024-03-23T13:52:21;3.57;;;1.83;;
7247;SDS011;3665;51.034;13.642;2024-03-23T13:57:08;4.33;;;1.97;;
7247;SDS011;3665;51.034;13.642;2024-03-23T14:01:54;1.97;;;1.50;;
7247;SDS011;3665;51.034;13.642;2024-03-23T14:06:38;3.47;;;1.53;;
7247;SDS011;3665;51.034;13.642;2024-03-23T14:11:29;4.07;;;1.43;;
7247;SDS011;3665;51.034;13.642;2024-03-23T14:21:22;2.47;;;1.57;;
7247;SDS011;3665;51.034;13.642;2024-03-23T14:26:11;2.93;;;1.80;;
7247;SDS011;3665;51.034;13.642;2024-03-23T14:31:00;3.27;;;2.33;;
7247;SDS011;3665;51.034;13.642;2024-03-23T14:35:53;3.70;;;1.80;;
7247;SDS011;3665;51.034;13.642;2024-03-23T14:40:49;4.90;;;1.90;;
7247;SDS011;3665;51.034;13.642;2024-03-23T14:45:45;2.47;;;1.73;;
7247;SDS011;3665;51.034;13.642;2024-03-23T14:50:57;3.57;;;1.90;;
7247;SDS011;3665;51.034;13.642;2024-03-23T14:55:49;2.57;;;1.90;;
7247;SDS011;3665;51.034;13.642;2024-03-23T15:00:35;3.40;;;1.90;;
7247;SDS011;3665;51.034;13.642;2024-03-23T15:05:24;6.40;;;2.07;;
7247;SDS011;3665;51.034;13.642;2024-03-23T15:10:11;4.70;;;2.07;;
7247;SDS011;3665;51.034;13.642;2024-03-23T15:14:57;4.40;;;2.20;;
7247;SDS011;3665;51.034;13.642;2024-03-23T15:19:46;3.10;;;2.13;;
7247;SDS011;3665;51.034;13.642;2024-03-23T15:24:35;5.60;;;2.23;;
7247;SDS011;3665;51.034;13.642;2024-03-23T15:29:21;2.20;;;1.67;;
7247;SDS011;3665;51.034;13.642;2024-03-23T15:34:08;4.73;;;1.73;;
7247;SDS011;3665;51.034;13.642;2024-03-23T15:38:51;3.30;;;2.10;;
7247;SDS011;3665;51.034;13.642;2024-03-23T15:43:45;4.30;;;2.13;;
7247;SDS011;3665;51.034;13.642;2024-03-23T15:48:33;3.40;;;2.30;;
7247;SDS011;3665;51.034;13.642;2024-03-23T15:53:18;4.60;;;2.83;;
7247;SDS011;3665;51.034;13.642;2024-03-23T15:58:11;3.00;;;2.50;;
7247;SDS011;3665;51.034;13.642;2024-03-23T16:02:54;4.37;;;2.87;;
7247;SDS011;3665;51.034;13.642;2024-03-23T16:07:41;4.03;;;2.77;;
7247;SDS011;3665;51.034;13.642;2024-03-23T16:12:32;6.17;;;3.30;;
7247;SDS011;3665;51.034;13.642;2024-03-23T16:17:24;8.00;;;2.93;;
7247;SDS011;3665;51.034;13.642;2024-03-23T16:22:06;3.30;;;3.00;;
7247;SDS011;3665;51.034;13.642;2024-03-23T16:26:58;4.40;;;3.13;;
7247;SDS011;3665;51.034;13.642;2024-03-23T16:31:45;3.00;;;2.60;;
7247;SDS011;3665;51.034;13.642;2024-03-23T16:36:30;4.23;;;3.10;;
7247;SDS011;3665;51.034;13.642;2024-03-23T16:41:21;3.17;;;2.57;;
7247;SDS011;3665;51.034;13.642;2024-03-23T16:51:11;4.43;;;2.53;;
7247;SDS011;3665;51.034;13.642;2024-03-23T16:55:55;4.50;;;3.00;;
7247;SDS011;3665;51.034;13.642;2024-03-23T17:00:43;3.13;;;2.73;;
7247;SDS011;3665;51.034;13.642;2024-03-23T17:05:47;4.40;;;3.27;;
7247;SDS011;3665;51.034;13.642;2024-03-23T17:10:43;6.23;;;3.80;;
7247;SDS011;3665;51.034;13.642;2024-03-23T17:15:32;6.23;;;4.17;;
7247;SDS011;3665;51.034;13.642;2024-03-23T17:20:18;5.20;;;3.20;;
7247;SDS011;3665;51.034;13.642;2024-03-23T17:30:14;5.63;;;3.50;;
7247;SDS011;3665;51.034;13.642;2024-03-23T17:35:07;5.70;;;3.50;;
7247;SDS011;3665;51.034;13.642;2024-03-23T17:40:01;4.60;;;3.80;;
7247;SDS011;3665;51.034;13.642;2024-03-23T17:44:52;4.83;;;3.63;;
7247;SDS011;3665;51.034;13.642;2024-03-23T17:49:40;4.70;;;3.63;;
7247;SDS011;3665;51.034;13.642;2024-03-23T17:54:26;6.33;;;3.97;;
7247;SDS011;3665;51.034;13.642;2024-03-23T17:59:13;6.97;;;4.33;;
7247;SDS011;3665;51.034;13.642;2024-03-23T18:09:05;4.47;;;3.50;;
7247;SDS011;3665;51.034;13.642;2024-03-23T18:13:55;5.13;;;3.90;;
7247;SDS011;3665;51.034;13.642;2024-03-23T18:18:44;4.53;;;3.77;;
7247;SDS011;3665;51.034;13.642;2024-03-23T18:23:33;6.00;;;4.73;;
7247;SDS011;3665;51.034;13.642;2024-03-23T18:28:23;4.83;;;4.20;;
7247;SDS011;3665;51.034;13.642;2024-03-23T18:33:22;5.80;;;4.23;;
7247;SDS011;3665;51.034;13.642;2024-03-23T18:38:14;5.73;;;4.50;;
7247;SDS011;3665;51.034;13.642;2024-03-23T18:42:59;5.27;;;4.07;;
7247;SDS011;3665;51.034;13.642;2024-03-23T18:47:47;3.50;;;3.10;;
7247;SDS011;3665;51.034;13.642;2024-03-23T18:52:35;3.80;;;3.20;;
7247;SDS011;3665;51.034;13.642;2024-03-23T18:57:21;4.93;;;3.50;;
7247;SDS011;3665;51.034;13.642;2024-03-23T19:02:13;5.00;;;3.37;;
7247;SDS011;3665;51.034;13.642;2024-03-23T19:06:57;7.00;;;4.20;;
7247;SDS011;3665;51.034;13.642;2024-03-23T19:11:49;5.17;;;4.30;;
7247;SDS011;3665;51.034;13.642;2024-03-23T19:17:27;6.53;;;4.67;;
7247;SDS011;3665;51.034;13.642;2024-03-23T19:22:27;4.53;;;3.20;;
7247;SDS011;3665;51.034;13.642;2024-03-23T19:27:13;4.47;;;2.90;;
7247;SDS011;3665;51.034;13.642;2024-03-23T19:32:05;6.53;;;3.03;;
7247;SDS011;3665;51.034;13.642;2024-03-23T19:36:50;3.70;;;3.33;;
7247;SDS011;3665;51.034;13.642;2024-03-23T19:41:37;5.80;;;3.30;;
7247;SDS011;3665;51.034;13.642;2024-03-23T19:46:24;4.07;;;3.63;;
7247;SDS011;3665;51.034;13.642;2024-03-23T19:51:13;3.93;;;3.63;;
7247;SDS011;3665;51.034;13.642;2024-03-23T19:56:01;5.40;;;3.50;;
7247;SDS011;3665;51.034;13.642;2024-03-23T20:00:54;5.33;;;3.73;;
7247;SDS011;3665;51.034;13.642;2024-03-23T20:06:00;5.30;;;3.23;;
7247;SDS011;3665;51.034;13.642;2024-03-23T20:11:00;3.63;;;3.33;;
7247;SDS011;3665;51.034;13.642;2024-03-23T20:16:19;3.50;;;3.00;;
7247;SDS011;3665;51.034;13.642;2024-03-23T20:21:06;3.43;;;3.13;;
7247;SDS011;3665;51.034;13.642;2024-03-23T20:25:53;4.83;;;3.47;;
7247;SDS011;3665;51.034;13.642;2024-03-23T20:30:42;4.23;;;3.83;;
7247;SDS011;3665;51.034;13.642;2024-03-23T20:40:34;5.37;;;4.00;;
7247;SDS011;3665;51.034;13.642;2024-03-23T20:45:25;4.33;;;3.40;;
7247;SDS011;3665;51.034;13.642;2024-03-23T21:56:01;3.63;;;2.40;;
7247;SDS011;3665;51.034;13.642;2024-03-23T22:00:48;4.00;;;2.60;;
7247;SDS011;3665;51.034;13.642;2024-03-23T22:11:50;4.13;;;2.83;;
7247;SDS011;3665;51.034;13.642;2024-03-23T22:16:33;4.27;;;2.20;;
7247;SDS011;3665;51.034;13.642;2024-03-23T22:21:16;3.87;;;2.13;;
7247;SDS011;3665;51.034;13.642;2024-03-23T22:26:47;3.33;;;2.10;;
